createdAt,value
2024-01-27T00:00:41.461Z,32.28
2024-01-27T00:01:41.342Z,32.28
2024-01-27T00:02:41.363Z,32.24
2024-01-27T00:03:41.414Z,32.26
2024-01-27T00:04:41.463Z,32.28
2024-01-27T00:05:41.480Z,32.26
2024-01-27T00:06:41.507Z,32.35
2024-01-27T00:07:41.465Z,32.30
2024-01-27T00:08:41.467Z,32.28
2024-01-27T00:09:41.483Z,32.28
2024-01-27T00:10:41.490Z,32.26
2024-01-27T00:11:41.499Z,32.26
2024-01-27T00:12:41.487Z,32.29
2024-01-27T00:13:41.492Z,32.25
2024-01-27T00:14:41.515Z,32.26
2024-01-27T00:15:41.546Z,32.26
2024-01-27T00:16:41.512Z,32.28
2024-01-27T00:17:41.550Z,32.26
2024-01-27T00:18:41.605Z,32.23
2024-01-27T00:19:42.006Z,32.25
2024-01-27T00:20:41.518Z,32.24
2024-01-27T00:21:41.526Z,32.27
2024-01-27T00:22:41.540Z,32.27
2024-01-27T00:23:41.549Z,32.25
2024-01-27T00:24:41.558Z,32.24
2024-01-27T00:25:41.574Z,32.23
2024-01-27T00:26:41.610Z,32.23
2024-01-27T00:27:41.645Z,32.23
2024-01-27T00:28:41.551Z,32.24
2024-01-27T00:29:41.592Z,32.24
2024-01-27T00:30:41.564Z,32.25
2024-01-27T00:31:41.562Z,32.24
2024-01-27T00:32:41.608Z,32.23
2024-01-27T00:33:41.673Z,32.24
2024-01-27T00:34:41.619Z,32.24
2024-01-27T00:35:41.578Z,32.23
2024-01-27T00:36:41.587Z,32.23
2024-01-27T00:37:41.597Z,32.20
2024-01-27T00:38:41.603Z,32.20
2024-01-27T00:39:41.625Z,32.21
2024-01-27T00:40:41.655Z,32.21
2024-01-27T00:41:41.696Z,32.22
2024-01-27T00:42:41.724Z,32.20
2024-01-27T00:43:41.764Z,32.21
2024-01-27T00:44:41.801Z,32.19
2024-01-27T00:45:41.829Z,32.20
2024-01-27T00:46:41.859Z,32.26
2024-01-27T00:47:41.984Z,32.23
2024-01-27T00:48:42.079Z,32.17
2024-01-27T00:49:42.103Z,32.19
2024-01-27T00:50:42.081Z,32.19
2024-01-27T00:51:42.074Z,32.19
2024-01-27T00:52:42.083Z,32.24
2024-01-27T00:53:42.132Z,32.20
2024-01-27T00:54:42.236Z,32.20
2024-01-27T00:55:42.225Z,32.19
2024-01-27T00:56:42.268Z,32.19
2024-01-27T00:57:42.293Z,32.18
2024-01-27T00:58:42.353Z,32.16
2024-01-27T00:59:42.378Z,32.14
2024-01-27T01:00:42.549Z,32.15
2024-01-27T01:01:42.550Z,32.15
2024-01-27T01:02:42.531Z,32.15
2024-01-27T01:03:42.719Z,32.12
2024-01-27T01:04:42.605Z,32.24
2024-01-27T01:05:42.652Z,32.16
2024-01-27T01:06:42.687Z,32.17
2024-01-27T01:07:42.700Z,32.21
2024-01-27T01:08:42.728Z,32.15
2024-01-27T01:09:42.771Z,32.16
2024-01-27T01:10:42.798Z,32.17
2024-01-27T01:11:42.835Z,32.17
2024-01-27T01:12:42.862Z,32.17
2024-01-27T01:13:42.906Z,32.18
2024-01-27T01:14:42.941Z,32.17
2024-01-27T01:15:42.980Z,32.17
2024-01-27T01:16:43.037Z,32.19
2024-01-27T01:17:43.077Z,32.18
2024-01-27T01:18:43.192Z,32.18
2024-01-27T01:19:43.139Z,32.17
2024-01-27T01:20:43.151Z,32.17
2024-01-27T01:21:43.196Z,32.16
2024-01-27T01:22:43.238Z,32.19
2024-01-27T01:23:43.272Z,32.15
2024-01-27T01:24:43.325Z,32.18
2024-01-27T01:25:43.371Z,32.14
2024-01-27T01:26:43.378Z,32.13
2024-01-27T01:27:43.425Z,32.15
2024-01-27T01:28:43.501Z,32.12
2024-01-27T01:29:43.518Z,32.12
2024-01-27T01:30:43.580Z,32.12
2024-01-27T01:31:43.629Z,32.13
2024-01-27T01:32:43.686Z,32.13
2024-01-27T01:33:43.787Z,32.15
2024-01-27T01:34:43.776Z,32.14
2024-01-27T01:35:43.713Z,32.16
2024-01-27T01:36:43.745Z,32.13
2024-01-27T01:37:43.761Z,32.16
2024-01-27T01:38:43.835Z,32.15
2024-01-27T01:39:43.787Z,32.16
2024-01-27T01:40:43.799Z,32.17
2024-01-27T01:41:43.795Z,32.16
2024-01-27T01:42:43.811Z,32.17
2024-01-27T01:43:43.800Z,32.17
2024-01-27T01:44:43.823Z,32.15
2024-01-27T01:45:43.809Z,32.17
2024-01-27T01:46:43.829Z,32.18
2024-01-27T01:47:43.891Z,32.17
2024-01-27T01:48:43.986Z,32.16
2024-01-27T01:49:43.944Z,32.15
2024-01-27T01:50:43.848Z,32.16
2024-01-27T01:51:43.846Z,32.16
2024-01-27T01:52:43.853Z,32.16
2024-01-27T01:53:43.852Z,32.14
2024-01-27T01:54:43.852Z,32.15
2024-01-27T01:55:43.862Z,32.15
2024-01-27T01:56:43.886Z,32.16
2024-01-27T01:57:43.888Z,32.12
2024-01-27T01:58:43.882Z,32.12
2024-01-27T01:59:44.035Z,32.12
2024-01-27T02:00:43.962Z,32.13
2024-01-27T02:01:46.171Z,32.12
2024-01-27T02:02:43.897Z,32.11
2024-01-27T02:03:43.895Z,32.09
2024-01-27T02:04:43.976Z,32.08
2024-01-27T02:05:43.957Z,32.08
2024-01-27T02:06:44.018Z,32.09
2024-01-27T02:07:43.941Z,32.09
2024-01-27T02:08:43.949Z,32.07
2024-01-27T02:09:43.944Z,32.07
2024-01-27T02:10:43.955Z,32.11
2024-01-27T02:11:43.967Z,32.06
2024-01-27T02:12:44.002Z,32.07
2024-01-27T02:13:43.977Z,32.07
2024-01-27T02:14:43.999Z,32.09
2024-01-27T02:15:43.996Z,32.09
2024-01-27T02:16:43.995Z,32.08
2024-01-27T02:17:44.112Z,32.07
2024-01-27T02:18:44.068Z,32.07
2024-01-27T02:19:44.210Z,32.08
2024-01-27T02:20:44.006Z,32.07
2024-01-27T02:21:44.031Z,32.08
2024-01-27T02:22:44.040Z,32.11
2024-01-27T02:23:44.038Z,32.07
2024-01-27T02:24:44.062Z,32.07
2024-01-27T02:25:44.030Z,32.08
2024-01-27T02:26:44.043Z,32.07
2024-01-27T02:27:44.031Z,32.10
2024-01-27T02:28:44.081Z,32.11
2024-01-27T02:29:44.098Z,32.05
2024-01-27T02:30:44.171Z,32.05
2024-01-27T02:31:44.161Z,32.04
2024-01-27T02:32:44.226Z,32.06
2024-01-27T02:33:44.351Z,32.07
2024-01-27T02:34:44.298Z,32.05
2024-01-27T02:35:44.268Z,32.04
2024-01-27T02:36:44.319Z,32.04
2024-01-27T02:37:44.339Z,32.05
2024-01-27T02:38:44.353Z,32.04
2024-01-27T02:39:44.397Z,32.09
2024-01-27T02:40:44.407Z,32.05
2024-01-27T02:41:44.442Z,32.05
2024-01-27T02:42:44.478Z,32.04
2024-01-27T02:43:44.498Z,32.05
2024-01-27T02:44:44.540Z,32.04
2024-01-27T02:45:44.587Z,32.03
2024-01-27T02:46:44.595Z,32.03
2024-01-27T02:47:44.735Z,32.04
2024-01-27T02:48:44.810Z,32.03
2024-01-27T02:49:44.888Z,32.02
2024-01-27T02:50:44.712Z,32.02
2024-01-27T02:51:44.734Z,32.02
2024-01-27T02:52:44.791Z,31.98
2024-01-27T02:53:44.798Z,31.99
2024-01-27T02:54:44.818Z,31.98
2024-01-27T02:55:44.831Z,31.99
2024-01-27T02:56:44.869Z,32.00
2024-01-27T02:57:44.895Z,32.00
2024-01-27T02:58:44.921Z,32.00
2024-01-27T02:59:44.918Z,32.02
2024-01-27T03:00:45.038Z,32.02
2024-01-27T03:01:44.933Z,32.02
2024-01-27T03:02:44.930Z,32.02
2024-01-27T03:03:45.022Z,32.03
2024-01-27T03:04:45.018Z,32.02
2024-01-27T03:05:45.063Z,32.01
2024-01-27T03:06:45.083Z,32.01
2024-01-27T03:07:44.962Z,32.01
2024-01-27T03:08:44.973Z,32.01
2024-01-27T03:09:44.987Z,32.00
2024-01-27T03:10:45.002Z,32.00
2024-01-27T03:11:44.979Z,32.00
2024-01-27T03:12:45.032Z,32.00
2024-01-27T03:13:44.992Z,31.99
2024-01-27T03:14:45.028Z,32.02
2024-01-27T03:15:45.031Z,32.00
2024-01-27T03:16:45.033Z,32.04
2024-01-27T03:17:45.062Z,32.02
2024-01-27T03:18:45.114Z,32.01
2024-01-27T03:19:47.145Z,32.02
2024-01-27T03:20:45.034Z,32.01
2024-01-27T03:21:45.064Z,32.08
2024-01-27T03:22:45.047Z,32.03
2024-01-27T03:23:45.057Z,32.01
2024-01-27T03:24:45.064Z,32.02
2024-01-27T03:25:45.093Z,32.03
2024-01-27T03:26:45.078Z,32.06
2024-01-27T03:27:45.799Z,32.04
2024-01-27T03:28:45.088Z,32.01
2024-01-27T03:29:45.086Z,31.99
2024-01-27T03:30:45.097Z,31.99
2024-01-27T03:31:45.116Z,31.96
2024-01-27T03:32:45.242Z,31.98
2024-01-27T03:33:45.195Z,31.98
2024-01-27T03:34:45.278Z,32.01
2024-01-27T03:35:45.112Z,31.98
2024-01-27T03:36:45.129Z,32.00
2024-01-27T03:37:45.124Z,31.99
2024-01-27T03:38:45.137Z,31.99
2024-01-27T03:39:45.149Z,31.98
2024-01-27T03:40:45.151Z,31.97
2024-01-27T03:41:45.140Z,31.97
2024-01-27T03:42:45.153Z,31.98
2024-01-27T03:43:45.247Z,31.97
2024-01-27T03:44:45.172Z,31.98
2024-01-27T03:45:45.196Z,31.97
2024-01-27T03:46:45.199Z,31.96
2024-01-27T03:47:46.778Z,31.95
2024-01-27T03:48:45.339Z,31.95
2024-01-27T03:49:45.321Z,32.07
2024-01-27T03:50:45.202Z,31.99
2024-01-27T03:51:45.219Z,31.98
2024-01-27T03:52:45.235Z,31.98
2024-01-27T03:53:45.258Z,31.99
2024-01-27T03:54:45.258Z,32.00
2024-01-27T03:55:45.237Z,32.01
2024-01-27T03:56:45.259Z,32.05
2024-01-27T03:57:45.280Z,32.02
2024-01-27T03:58:45.272Z,31.98
2024-01-27T03:59:45.287Z,31.97
2024-01-27T04:00:46.178Z,31.97
2024-01-27T04:01:45.302Z,31.98
2024-01-27T04:02:45.302Z,31.95
2024-01-27T04:03:45.344Z,31.94
2024-01-27T04:04:45.421Z,31.93
2024-01-27T04:05:45.378Z,31.94
2024-01-27T04:06:45.495Z,31.96
2024-01-27T04:07:45.368Z,31.96
2024-01-27T04:08:45.385Z,31.94
2024-01-27T04:09:45.443Z,31.92
2024-01-27T04:10:45.406Z,31.93
2024-01-27T04:11:45.411Z,31.94
2024-01-27T04:12:45.408Z,31.94
2024-01-27T04:13:45.420Z,31.94
2024-01-27T04:14:45.429Z,31.98
2024-01-27T04:15:45.443Z,31.96
2024-01-27T04:16:45.431Z,31.95
2024-01-27T04:17:45.458Z,31.94
2024-01-27T04:18:45.628Z,31.95
2024-01-27T04:19:45.584Z,31.94
2024-01-27T04:20:45.465Z,31.95
2024-01-27T04:21:45.458Z,31.95
2024-01-27T04:22:45.462Z,31.91
2024-01-27T04:23:45.454Z,31.92
2024-01-27T04:24:45.490Z,31.93
2024-01-27T04:25:45.481Z,31.93
2024-01-27T04:26:52.713Z,31.96
2024-01-27T04:27:52.713Z,31.96
2024-01-27T04:28:52.768Z,31.94
2024-01-27T04:29:52.785Z,31.93
2024-01-27T04:30:52.787Z,31.92
2024-01-27T04:32:00.006Z,31.95
2024-01-27T04:33:00.108Z,31.95
2024-01-27T04:34:00.243Z,31.95
2024-01-27T04:34:59.993Z,31.93
2024-01-27T04:36:00.024Z,31.95
2024-01-27T04:36:59.994Z,31.94
2024-01-27T04:37:59.986Z,31.92
2024-01-27T04:38:59.998Z,31.93
2024-01-27T04:40:00.617Z,31.92
2024-01-27T04:40:59.977Z,31.94
2024-01-27T04:42:00.034Z,31.94
2024-01-27T04:42:59.985Z,31.89
2024-01-27T04:43:59.999Z,31.93
2024-01-27T04:44:59.996Z,31.89
2024-01-27T04:45:59.977Z,31.93
2024-01-27T04:46:59.959Z,31.90
2024-01-27T04:48:00.091Z,31.90
2024-01-27T04:49:00.079Z,31.90
2024-01-27T04:49:59.970Z,31.89
2024-01-27T04:50:59.957Z,31.90
2024-01-27T04:51:59.930Z,31.88
2024-01-27T04:52:59.956Z,31.92
2024-01-27T04:54:00.020Z,31.91
2024-01-27T04:54:59.936Z,31.93
2024-01-27T04:55:59.943Z,31.90
2024-01-27T04:56:59.976Z,31.90
2024-01-27T04:57:59.908Z,31.91
2024-01-27T04:58:59.914Z,31.92
2024-01-27T04:59:59.935Z,31.89
2024-01-27T05:00:59.920Z,31.89
2024-01-27T05:01:59.883Z,31.88
2024-01-27T05:02:59.964Z,31.86
2024-01-27T05:04:00.052Z,31.90
2024-01-27T05:04:59.979Z,31.90
2024-01-27T05:06:00.089Z,31.87
2024-01-27T05:07:00.232Z,31.87
2024-01-27T05:08:00.097Z,31.85
2024-01-27T05:09:00.103Z,31.83
2024-01-27T05:10:00.172Z,31.84
2024-01-27T05:11:00.171Z,31.83
2024-01-27T05:12:00.248Z,31.83
2024-01-27T05:13:00.259Z,31.82
2024-01-27T05:14:00.240Z,31.83
2024-01-27T05:15:00.423Z,31.81
2024-01-27T05:16:00.224Z,31.85
2024-01-27T05:17:00.211Z,31.83
2024-01-27T05:18:00.414Z,31.86
2024-01-27T05:19:00.278Z,31.85
2024-01-27T05:20:00.288Z,31.91
2024-01-27T05:21:00.220Z,31.88
2024-01-27T05:22:00.189Z,31.87
2024-01-27T05:23:00.187Z,31.88
2024-01-27T05:24:00.235Z,31.86
2024-01-27T05:25:00.182Z,31.86
2024-01-27T05:26:00.184Z,31.84
2024-01-27T05:27:00.274Z,31.84
2024-01-27T05:28:00.165Z,31.85
2024-01-27T05:29:00.157Z,31.85
2024-01-27T05:30:00.272Z,31.85
2024-01-27T05:31:00.240Z,31.89
2024-01-27T05:32:00.273Z,31.87
2024-01-27T05:33:00.533Z,31.85
2024-01-27T05:34:00.546Z,31.87
2024-01-27T05:35:00.658Z,31.87
2024-01-27T05:36:00.408Z,31.86
2024-01-27T05:37:00.458Z,31.86
2024-01-27T05:38:00.469Z,31.87
2024-01-27T05:39:00.539Z,31.86
2024-01-27T05:40:00.597Z,31.85
2024-01-27T05:41:00.574Z,31.84
2024-01-27T05:42:00.657Z,31.83
2024-01-27T05:43:00.637Z,31.95
2024-01-27T05:44:00.661Z,31.89
2024-01-27T05:45:00.774Z,31.86
2024-01-27T05:46:00.736Z,31.85
2024-01-27T05:47:00.745Z,31.82
2024-01-27T05:48:00.857Z,31.84
2024-01-27T05:49:00.930Z,31.83
2024-01-27T05:50:00.745Z,31.82
2024-01-27T05:51:00.828Z,31.81
2024-01-27T05:52:00.748Z,31.82
2024-01-27T05:53:00.761Z,31.79
2024-01-27T05:54:00.796Z,31.81
2024-01-27T05:55:00.751Z,31.80
2024-01-27T05:56:00.751Z,31.81
2024-01-27T05:57:00.772Z,31.82
2024-01-27T05:58:00.773Z,31.82
2024-01-27T05:59:00.753Z,31.80
2024-01-27T06:00:00.806Z,31.80
2024-01-27T06:01:00.793Z,31.80
2024-01-27T06:02:00.787Z,31.81
2024-01-27T06:03:00.860Z,31.79
2024-01-27T06:04:00.893Z,31.78
2024-01-27T06:05:00.770Z,31.78
2024-01-27T06:06:00.841Z,31.78
2024-01-27T06:07:00.859Z,31.77
2024-01-27T06:08:00.758Z,31.78
2024-01-27T06:09:00.816Z,31.80
2024-01-27T06:10:00.774Z,31.79
2024-01-27T06:11:00.777Z,31.79
2024-01-27T06:12:00.788Z,31.79
2024-01-27T06:13:00.778Z,31.78
2024-01-27T06:14:00.790Z,31.76
2024-01-27T06:15:00.894Z,31.77
2024-01-27T06:16:00.792Z,31.79
2024-01-27T06:17:00.788Z,31.76
2024-01-27T06:18:01.022Z,31.76
2024-01-27T06:19:00.917Z,31.77
2024-01-27T06:20:01.092Z,31.76
2024-01-27T06:21:00.893Z,31.77
2024-01-27T06:22:03.585Z,31.76
2024-01-27T06:23:00.786Z,31.77
2024-01-27T06:24:00.834Z,31.75
2024-01-27T06:25:00.786Z,31.75
2024-01-27T06:26:00.789Z,31.76
2024-01-27T06:27:00.822Z,31.75
2024-01-27T06:28:00.766Z,31.74
2024-01-27T06:29:00.764Z,31.76
2024-01-27T06:30:00.821Z,31.73
2024-01-27T06:31:00.772Z,31.71
2024-01-27T06:32:00.764Z,31.73
2024-01-27T06:33:00.943Z,31.75
2024-01-27T06:34:00.792Z,31.76
2024-01-27T06:35:00.826Z,31.77
2024-01-27T06:36:00.865Z,31.75
2024-01-27T06:37:00.770Z,31.74
2024-01-27T06:38:00.756Z,31.77
2024-01-27T06:39:00.771Z,31.74
2024-01-27T06:40:00.766Z,31.73
2024-01-27T06:41:00.771Z,31.74
2024-01-27T06:42:00.845Z,31.71
2024-01-27T06:43:02.940Z,31.71
2024-01-27T06:44:00.850Z,31.75
2024-01-27T06:45:00.942Z,31.74
2024-01-27T06:46:00.851Z,31.75
2024-01-27T06:47:00.853Z,31.76
2024-01-27T06:48:00.980Z,31.79
2024-01-27T06:49:00.982Z,31.80
2024-01-27T06:50:00.905Z,31.79
2024-01-27T06:51:00.928Z,31.78
2024-01-27T06:52:00.864Z,31.76
2024-01-27T06:53:00.870Z,31.78
2024-01-27T06:54:00.890Z,31.77
2024-01-27T06:55:00.894Z,31.82
2024-01-27T06:56:00.866Z,31.81
2024-01-27T06:57:00.887Z,31.80
2024-01-27T06:58:00.891Z,31.83
2024-01-27T06:59:00.864Z,31.80
2024-01-27T07:00:00.914Z,31.81
2024-01-27T07:01:00.919Z,31.79
2024-01-27T07:02:00.886Z,31.77
2024-01-27T07:03:00.916Z,31.79
2024-01-27T07:04:01.024Z,31.79
2024-01-27T07:05:00.912Z,31.79
2024-01-27T07:06:00.920Z,31.80
2024-01-27T07:07:00.917Z,31.76
2024-01-27T07:08:00.892Z,31.72
2024-01-27T07:09:00.931Z,31.69
2024-01-27T07:10:00.887Z,31.66
2024-01-27T07:11:00.881Z,31.64
2024-01-27T07:12:01.011Z,31.63
2024-01-27T07:13:00.882Z,31.60
2024-01-27T07:14:00.906Z,31.62
2024-01-27T07:15:01.036Z,31.64
2024-01-27T07:16:00.910Z,31.61
2024-01-27T07:17:00.887Z,31.58
2024-01-27T07:18:00.977Z,31.60
2024-01-27T07:19:00.973Z,31.59
2024-01-27T07:20:00.974Z,31.61
2024-01-27T07:21:00.947Z,31.59
2024-01-27T07:22:00.971Z,31.58
2024-01-27T07:23:00.896Z,31.59
2024-01-27T07:24:00.990Z,31.58
2024-01-27T07:25:00.900Z,31.59
2024-01-27T07:26:00.897Z,31.58
2024-01-27T07:27:00.980Z,31.61
2024-01-27T07:28:00.906Z,31.62
2024-01-27T07:29:00.944Z,31.59
2024-01-27T07:30:00.949Z,31.59
2024-01-27T07:31:00.891Z,31.58
2024-01-27T07:32:00.893Z,31.56
2024-01-27T07:33:01.009Z,31.57
2024-01-27T07:34:00.998Z,31.59
2024-01-27T07:35:01.033Z,31.56
2024-01-27T07:36:00.971Z,31.55
2024-01-27T07:37:00.991Z,31.54
2024-01-27T07:38:01.020Z,31.53
2024-01-27T07:39:01.106Z,31.56
2024-01-27T07:40:01.131Z,31.55
2024-01-27T07:41:01.125Z,31.57
2024-01-27T07:42:01.228Z,31.55
2024-01-27T07:43:01.193Z,31.52
2024-01-27T07:44:01.230Z,31.53
2024-01-27T07:45:01.437Z,31.51
2024-01-27T07:46:01.298Z,31.55
2024-01-27T07:47:01.337Z,31.54
2024-01-27T07:48:02.365Z,31.54
2024-01-27T07:49:01.467Z,31.54
2024-01-27T07:50:01.495Z,31.58
2024-01-27T07:51:01.518Z,31.57
2024-01-27T07:52:01.520Z,31.56
2024-01-27T07:53:01.539Z,31.58
2024-01-27T07:54:01.619Z,31.58
2024-01-27T07:55:01.601Z,31.58
2024-01-27T07:56:02.002Z,31.56
2024-01-27T07:57:01.766Z,31.55
2024-01-27T07:58:01.649Z,31.57
2024-01-27T07:59:01.651Z,31.55
2024-01-27T08:00:01.735Z,31.57
2024-01-27T08:01:01.700Z,31.56
2024-01-27T08:02:01.639Z,31.58
2024-01-27T08:03:01.667Z,31.56
2024-01-27T08:04:01.773Z,31.57
2024-01-27T08:05:01.658Z,31.54
2024-01-27T08:06:01.691Z,31.51
2024-01-27T08:07:01.684Z,31.53
2024-01-27T08:08:01.645Z,31.52
2024-01-27T08:09:01.657Z,31.53
2024-01-27T08:12:01.661Z,31.92
2024-01-27T08:13:01.597Z,31.64
2024-01-27T08:14:01.614Z,31.60
2024-01-27T08:15:01.692Z,31.57
2024-01-27T08:16:01.588Z,31.51
2024-01-27T08:17:01.614Z,31.58
2024-01-27T08:18:01.735Z,31.54
2024-01-27T08:19:01.789Z,31.53
2024-01-27T08:20:01.663Z,31.57
2024-01-27T08:21:01.611Z,31.52
2024-01-27T08:22:01.579Z,31.54
2024-01-27T08:23:04.053Z,31.54
2024-01-27T08:24:01.667Z,31.49
2024-01-27T08:25:01.577Z,31.55
2024-01-27T08:26:01.569Z,31.53
2024-01-27T08:27:01.610Z,31.51
2024-01-27T08:28:01.588Z,31.51
2024-01-27T08:29:01.599Z,31.52
2024-01-27T08:30:01.624Z,31.54
2024-01-27T08:31:01.555Z,31.60
2024-01-27T08:32:01.597Z,31.60
2024-01-27T08:33:01.788Z,31.58
2024-01-27T08:34:01.652Z,31.58
2024-01-27T08:35:01.629Z,31.54
2024-01-27T08:36:01.591Z,31.55
2024-01-27T08:37:01.552Z,31.56
2024-01-27T08:38:01.560Z,31.55
2024-01-27T08:39:01.573Z,31.57
2024-01-27T08:40:01.557Z,31.59
2024-01-27T08:41:01.538Z,31.58
2024-01-27T08:42:01.545Z,31.53
2024-01-27T08:43:01.535Z,31.57
2024-01-27T08:44:01.518Z,31.53
2024-01-27T08:45:01.580Z,31.60
2024-01-27T08:46:01.523Z,31.55
2024-01-27T08:47:02.880Z,31.60
2024-01-27T08:48:01.570Z,31.64
2024-01-27T08:49:01.672Z,31.62
2024-01-27T08:50:01.551Z,31.59
2024-01-27T08:51:01.552Z,31.63
2024-01-27T08:52:01.489Z,31.60
2024-01-27T08:53:01.507Z,31.56
2024-01-27T08:54:01.565Z,31.57
2024-01-27T08:55:01.544Z,31.58
2024-01-27T08:56:01.570Z,31.57
2024-01-27T08:57:01.657Z,31.54
2024-01-27T08:58:01.641Z,31.50
2024-01-27T08:59:01.660Z,31.47
2024-01-27T09:00:01.737Z,31.48
2024-01-27T09:01:01.793Z,31.41
2024-01-27T09:02:01.727Z,31.45
2024-01-27T09:03:01.808Z,31.65
2024-01-27T09:04:01.840Z,31.63
2024-01-27T09:05:01.901Z,31.91
2024-01-27T09:06:01.917Z,31.98
2024-01-27T09:07:01.846Z,32.01
2024-01-27T09:08:01.837Z,31.97
2024-01-27T09:09:01.861Z,31.90
2024-01-27T09:10:01.827Z,32.00
2024-01-27T09:11:01.832Z,32.01
2024-01-27T09:12:01.864Z,32.08
2024-01-27T09:13:01.863Z,32.22
2024-01-27T09:14:01.840Z,32.17
2024-01-27T09:15:01.927Z,32.19
2024-01-27T09:16:01.864Z,32.25
2024-01-27T09:17:01.880Z,32.28
2024-01-27T09:18:02.018Z,32.19
2024-01-27T09:19:02.063Z,32.10
2024-01-27T09:20:02.119Z,32.08
2024-01-27T09:21:01.913Z,32.06
2024-01-27T09:22:01.927Z,31.96
2024-01-27T09:23:01.922Z,31.95
2024-01-27T09:24:01.950Z,32.08
2024-01-27T09:25:01.992Z,31.90
2024-01-27T09:26:01.968Z,31.86
2024-01-27T09:27:02.021Z,31.75
2024-01-27T09:28:02.080Z,31.82
2024-01-27T09:29:02.117Z,31.89
2024-01-27T09:30:02.270Z,31.90
2024-01-27T09:31:02.279Z,31.92
2024-01-27T09:32:02.314Z,31.96
2024-01-27T09:33:02.496Z,31.87
2024-01-27T09:34:02.565Z,31.80
2024-01-27T09:35:02.549Z,31.72
2024-01-27T09:36:02.547Z,31.80
2024-01-27T09:37:02.554Z,31.81
2024-01-27T09:38:02.617Z,31.76
2024-01-27T09:39:02.673Z,31.83
2024-01-27T09:40:02.740Z,31.91
2024-01-27T09:41:02.779Z,31.90
2024-01-27T09:42:02.879Z,31.84
2024-01-27T09:43:02.905Z,31.82
2024-01-27T09:44:02.945Z,31.74
2024-01-27T09:45:03.052Z,31.82
2024-01-27T09:46:03.033Z,31.82
2024-01-27T09:47:03.080Z,31.83
2024-01-27T09:48:03.284Z,31.83
2024-01-27T09:49:03.355Z,31.83
2024-01-27T09:50:03.247Z,31.75
2024-01-27T09:51:03.313Z,31.79
2024-01-27T09:52:03.298Z,31.79
2024-01-27T09:53:03.337Z,31.82
2024-01-27T09:54:03.450Z,31.81
2024-01-27T09:55:03.424Z,31.81
2024-01-27T09:56:03.446Z,31.74
2024-01-27T09:57:03.486Z,31.81
2024-01-27T09:58:03.501Z,31.82
2024-01-27T09:59:03.517Z,31.72
2024-01-27T10:00:03.694Z,31.78
2024-01-27T10:01:03.765Z,31.80
2024-01-27T10:02:03.634Z,31.75
2024-01-27T10:03:03.697Z,31.71
2024-01-27T10:04:03.721Z,31.66
2024-01-27T10:05:03.701Z,31.66
2024-01-27T10:06:03.824Z,31.67
2024-01-27T10:07:03.837Z,31.65
2024-01-27T10:08:03.789Z,31.62
2024-01-27T10:09:03.906Z,31.65
2024-01-27T10:10:03.903Z,31.65
2024-01-27T10:11:03.834Z,31.68
2024-01-27T10:12:03.897Z,31.69
2024-01-27T10:13:03.832Z,31.69
2024-01-27T10:14:03.806Z,31.68
2024-01-27T10:15:03.857Z,31.65
2024-01-27T10:16:03.826Z,31.68
2024-01-27T10:17:03.787Z,31.64
2024-01-27T10:18:03.830Z,31.67
2024-01-27T10:19:04.276Z,31.72
2024-01-27T10:20:03.912Z,31.67
2024-01-27T10:21:03.902Z,31.62
2024-01-27T10:22:03.754Z,31.65
2024-01-27T10:23:03.755Z,31.64
2024-01-27T10:24:03.820Z,31.67
2024-01-27T10:25:03.751Z,31.72
2024-01-27T10:26:03.748Z,31.69
2024-01-27T10:27:03.786Z,31.67
2024-01-27T10:28:03.730Z,31.63
2024-01-27T10:29:03.730Z,31.65
2024-01-27T10:30:03.778Z,31.67
2024-01-27T10:31:03.717Z,31.66
2024-01-27T10:32:03.942Z,31.63
2024-01-27T10:33:03.801Z,31.62
2024-01-27T10:34:03.871Z,31.64
2024-01-27T10:35:03.833Z,31.65
2024-01-27T10:36:03.932Z,31.67
2024-01-27T10:37:03.857Z,31.67
2024-01-27T10:38:03.852Z,31.66
2024-01-27T10:39:03.856Z,31.64
2024-01-27T10:40:03.868Z,31.67
2024-01-27T10:41:03.821Z,31.65
2024-01-27T10:42:03.925Z,31.42
2024-01-27T10:43:03.912Z,31.28
2024-01-27T10:44:03.832Z,31.42
2024-01-27T10:45:03.896Z,31.47
2024-01-27T10:46:03.876Z,31.54
2024-01-27T10:47:03.910Z,31.64
2024-01-27T10:48:04.108Z,31.86
2024-01-27T10:49:04.028Z,31.93
2024-01-27T10:50:03.969Z,31.93
2024-01-27T10:51:04.004Z,31.91
2024-01-27T10:52:03.968Z,31.81
2024-01-27T10:53:03.953Z,31.63
2024-01-27T10:54:04.050Z,31.70
2024-01-27T10:55:03.949Z,31.90
2024-01-27T10:56:03.926Z,31.60
2024-01-27T10:57:04.041Z,31.42
2024-01-27T10:58:03.916Z,31.44
2024-01-27T10:59:03.938Z,31.44
2024-01-27T11:00:03.933Z,31.53
2024-01-27T11:01:03.987Z,31.65
2024-01-27T11:02:03.887Z,31.58
2024-01-27T11:03:04.083Z,31.14
2024-01-27T11:04:03.967Z,30.14
2024-01-27T11:05:03.919Z,29.68
2024-01-27T11:06:03.849Z,29.22
2024-01-27T11:07:03.850Z,28.97
2024-01-27T11:08:03.833Z,28.58
2024-01-27T11:09:03.830Z,28.39
2024-01-27T11:10:03.825Z,28.20
2024-01-27T11:11:03.784Z,27.92
2024-01-27T11:12:03.775Z,27.79
2024-01-27T11:13:03.754Z,27.75
2024-01-27T11:14:03.754Z,27.62
2024-01-27T11:15:03.743Z,27.34
2024-01-27T11:16:03.666Z,27.23
2024-01-27T11:17:03.637Z,27.23
2024-01-27T11:18:03.687Z,27.04
2024-01-27T11:19:03.643Z,26.99
2024-01-27T11:20:03.728Z,26.89
2024-01-27T11:21:03.608Z,26.66
2024-01-27T11:22:03.570Z,26.58
2024-01-27T11:23:03.567Z,26.63
2024-01-27T11:24:03.598Z,26.49
2024-01-27T11:25:03.557Z,26.31
2024-01-27T11:26:03.528Z,26.27
2024-01-27T11:27:03.658Z,26.11
2024-01-27T11:28:03.547Z,26.12
2024-01-27T11:29:03.591Z,26.16
2024-01-27T11:30:03.640Z,26.11
2024-01-27T11:31:03.661Z,26.03
2024-01-27T11:32:03.674Z,25.94
2024-01-27T11:33:03.740Z,25.91
2024-01-27T11:34:03.785Z,25.90
2024-01-27T11:35:03.748Z,25.87
2024-01-27T11:36:03.579Z,25.87
2024-01-27T11:37:03.496Z,25.86
2024-01-27T11:38:03.455Z,25.86
2024-01-27T11:39:03.525Z,25.84
2024-01-27T11:40:03.386Z,25.79
2024-01-27T11:41:03.438Z,25.79
2024-01-27T11:42:03.365Z,25.77
2024-01-27T11:43:05.899Z,25.80
2024-01-27T11:44:03.499Z,25.79
2024-01-27T11:45:03.290Z,25.82
2024-01-27T11:46:03.194Z,25.98
2024-01-27T11:47:03.156Z,25.80
2024-01-27T11:48:03.302Z,25.82
2024-01-27T11:49:03.166Z,25.84
2024-01-27T11:50:03.164Z,25.84
2024-01-27T11:51:03.069Z,25.86
2024-01-27T11:52:02.974Z,25.85
2024-01-27T11:53:02.937Z,25.86
2024-01-27T11:54:02.938Z,25.86
2024-01-27T11:55:02.873Z,25.83
2024-01-27T11:56:02.878Z,25.85
2024-01-27T11:57:02.851Z,25.83
2024-01-27T11:58:02.771Z,25.81
2024-01-27T11:59:02.733Z,25.79
2024-01-27T12:00:02.868Z,25.77
2024-01-27T12:01:02.709Z,25.75
2024-01-27T12:02:02.632Z,25.67
2024-01-27T12:03:02.688Z,25.65
2024-01-27T12:04:02.579Z,25.60
2024-01-27T12:05:02.584Z,25.56
2024-01-27T12:06:02.600Z,25.52
2024-01-27T12:07:02.618Z,25.48
2024-01-27T12:08:02.460Z,25.42
2024-01-27T12:09:02.476Z,25.36
2024-01-27T12:10:02.371Z,25.34
2024-01-27T12:11:02.369Z,25.30
2024-01-27T12:12:02.328Z,25.26
2024-01-27T12:13:02.290Z,25.20
2024-01-27T12:14:02.219Z,25.14
2024-01-27T12:15:02.227Z,25.23
2024-01-27T12:16:02.162Z,25.37
2024-01-27T12:17:02.124Z,25.49
2024-01-27T12:18:02.347Z,25.60
2024-01-27T12:19:02.105Z,25.67
2024-01-27T12:20:02.184Z,25.68
2024-01-27T12:21:02.003Z,25.67
2024-01-27T12:22:01.950Z,25.63
2024-01-27T12:23:01.928Z,25.61
2024-01-27T12:24:02.123Z,25.63
2024-01-27T12:25:01.867Z,25.64
2024-01-27T12:26:01.879Z,25.59
2024-01-27T12:27:01.870Z,25.35
2024-01-27T12:28:01.801Z,24.87
2024-01-27T12:29:01.798Z,24.49
2024-01-27T12:30:01.811Z,24.18
2024-01-27T12:31:01.740Z,23.85
2024-01-27T12:32:01.712Z,23.61
2024-01-27T12:33:01.862Z,23.39
2024-01-27T12:34:01.842Z,23.21
2024-01-27T12:35:01.776Z,23.04
2024-01-27T12:36:01.639Z,22.89
2024-01-27T12:37:01.589Z,22.75
2024-01-27T12:38:01.534Z,22.60
2024-01-27T12:39:01.777Z,22.52
2024-01-27T12:40:01.581Z,22.38
2024-01-27T12:41:01.644Z,22.24
2024-01-27T12:42:01.646Z,22.15
2024-01-27T12:43:01.688Z,22.09
2024-01-27T12:44:01.693Z,21.99
2024-01-27T12:45:01.713Z,21.90
2024-01-27T12:46:01.753Z,21.84
2024-01-27T12:47:01.774Z,21.79
2024-01-27T12:48:01.905Z,21.68
2024-01-27T12:49:01.931Z,21.62
2024-01-27T12:50:01.973Z,21.49
2024-01-27T12:51:01.974Z,21.45
2024-01-27T12:52:01.891Z,21.34
2024-01-27T12:53:01.908Z,21.22
2024-01-27T12:54:01.968Z,21.22
2024-01-27T12:55:01.950Z,21.20